Providence, Rhode Island
Traffic Map
Current Weather Conditions
Providence, Rhode Island
Broken Clouds
Broken Clouds
79°
Feels Like: 81°
Wind Chill: 79° Ceiling: 25000
Heat Index: 81° Visibility: 10mi
Dew Point: 68° Wind: 7mph
Humidity: 69% Direction: 170° (S)
Pressure: 30.23in Gusts: 0mph
Raw Report DataKPVD 011551Z 17006KT 10SM FEW020 SCT140 BKN250 26/20 A3023 RMK AO2 SLP237 T02610200
Traffic Incident Summary
Active as of:
Severity:
Category:
InformationThere was an issue retrieving the traffic information for this location. Please try a different location or try again shortly.
Advertisements
Track Severe Weather on mobile